Time;durP1;ratioP1;P1;durP2;ratioP2;P2;SDS_P1;SDS_P2;PMS_P1;PMS_P2;Temp;Humidity;BMP_temperature;BMP_pressure;BME280_temperature;BME280_humidity;BME280_pressure;Samples;Min_cycle;Max_cycle;Signal;HPM_P1;HPM_P2
2021/09/18 00:01:35;;;;;;;69.13;44.28;;;;;;;;;;5069204;28;20064;-72
2021/09/18 00:04:01;;;;;;;65.55;41.25;;;;;;;;;;5070465;28;20402;-72
2021/09/18 00:06:27;;;;;;;63.75;40.90;;;;;;;;;;5071639;28;20047;-72
2021/09/18 00:08:54;;;;;;;66.57;43.75;;;;;;;;;;5069233;28;20035;-72
2021/09/18 00:11:20;;;;;;;68.63;43.35;;;;;;;;;;5070344;28;20024;-72
2021/09/18 00:13:46;;;;;;;69.82;43.45;;;;;;;;;;5070037;28;20043;-72
2021/09/18 00:16:12;;;;;;;70.65;43.05;;;;;;;;;;5070032;28;20100;-72
2021/09/18 00:18:38;;;;;;;68.45;44.65;;;;;;;;;;5069290;28;20028;-72
2021/09/18 00:21:04;;;;;;;80.80;47.88;;;;;;;;;;5070236;28;20035;-72
2021/09/18 00:23:30;;;;;;;73.85;45.10;;;;;;;;;;5065967;28;20033;-72
2021/09/18 00:25:56;;;;;;;78.40;45.53;;;;;;;;;;5063961;28;20013;-72
2021/09/18 00:28:22;;;;;;;72.68;45.03;;;;;;;;;;5068953;28;20070;-72
2021/09/18 00:30:48;;;;;;;77.05;46.42;;;;;;;;;;5067701;28;20162;-72
2021/09/18 00:33:14;;;;;;;76.88;45.63;;;;;;;;;;5069242;28;20048;-72
2021/09/18 00:35:41;;;;;;;79.03;47.10;;;;;;;;;;5070817;28;20111;-72
2021/09/18 00:38:07;;;;;;;77.28;43.35;;;;;;;;;;5076322;28;20056;-72
2021/09/18 00:40:33;;;;;;;78.85;45.63;;;;;;;;;;5067114;28;20055;-72
2021/09/18 00:42:59;;;;;;;75.03;44.05;;;;;;;;;;5070430;28;20036;-72
2021/09/18 00:45:25;;;;;;;80.47;45.53;;;;;;;;;;5070117;28;20123;-72
2021/09/18 00:47:51;;;;;;;76.47;42.83;;;;;;;;;;5067927;28;20017;-72
2021/09/18 00:50:17;;;;;;;69.40;41.15;;;;;;;;;;5069289;28;20045;-72
2021/09/18 00:52:43;;;;;;;70.93;42.67;;;;;;;;;;5059070;28;20043;-72
2021/09/18 00:55:09;;;;;;;74.85;43.85;;;;;;;;;;5067250;28;20013;-72
2021/09/18 00:57:35;;;;;;;64.70;40.88;;;;;;;;;;5067053;28;20025;-72
2021/09/18 01:00:03;;;;;;;68.45;40.13;;;;;;;;;;5069366;28;20647;-72
2021/09/18 01:02:29;;;;;;;66.38;40.15;;;;;;;;;;5069793;28;20028;-73
2021/09/18 01:04:55;;;;;;;71.57;42.38;;;;;;;;;;5069332;28;20398;-72
2021/09/18 01:07:22;;;;;;;69.47;40.00;;;;;;;;;;5068180;28;20016;-72
2021/09/18 01:09:48;;;;;;;61.42;38.70;;;;;;;;;;5066966;28;20029;-72
2021/09/18 01:12:14;;;;;;;65.80;40.67;;;;;;;;;;5069501;28;20024;-72
2021/09/18 01:14:43;;;;;;;65.43;40.08;;;;;;;;;;5069621;28;20029;-73
2021/09/18 01:17:10;;;;;;;61.90;39.10;;;;;;;;;;5068950;28;20086;-72
2021/09/18 01:19:36;;;;;;;64.38;39.17;;;;;;;;;;5066964;28;20553;-72
2021/09/18 01:22:03;;;;;;;68.68;41.42;;;;;;;;;;5068973;28;20486;-72
2021/09/18 01:24:29;;;;;;;71.10;43.10;;;;;;;;;;5094073;28;20029;-72
2021/09/18 01:26:55;;;;;;;68.85;42.85;;;;;;;;;;5068060;28;20025;-72
2021/09/18 01:29:21;;;;;;;63.30;39.90;;;;;;;;;;5068192;28;20025;-72
2021/09/18 01:31:48;;;;;;;74.00;41.60;;;;;;;;;;5067867;28;20041;-72
2021/09/18 01:34:21;;;;;;;70.15;41.92;;;;;;;;;;5069501;28;20028;-72
2021/09/18 01:36:48;;;;;;;68.38;39.47;;;;;;;;;;5070685;28;20028;-72
2021/09/18 01:39:14;;;;;;;65.38;40.30;;;;;;;;;;5071186;28;20510;-72
2021/09/18 01:41:42;;;;;;;63.28;38.25;;;;;;;;;;5071321;28;20483;-72
2021/09/18 01:44:08;;;;;;;61.78;37.78;;;;;;;;;;5073391;28;20052;-72
2021/09/18 01:46:34;;;;;;;63.05;37.25;;;;;;;;;;5072074;28;20028;-72
2021/09/18 01:49:00;;;;;;;62.53;37.67;;;;;;;;;;5072549;28;20035;-72
2021/09/18 01:51:29;;;;;;;60.38;36.42;;;;;;;;;;5071103;28;20023;-72
2021/09/18 01:53:55;;;;;;;62.67;38.33;;;;;;;;;;5073124;28;20130;-72
2021/09/18 01:56:21;;;;;;;61.75;38.03;;;;;;;;;;5068582;28;20029;-72
2021/09/18 01:58:47;;;;;;;60.33;35.45;;;;;;;;;;5070193;28;20028;-72
2021/09/18 02:01:13;;;;;;;58.80;34.78;;;;;;;;;;5071178;28;20059;-72
2021/09/18 02:03:39;;;;;;;64.80;36.45;;;;;;;;;;5072178;28;20029;-72
2021/09/18 02:06:05;;;;;;;52.65;31.85;;;;;;;;;;5071563;28;20047;-72
2021/09/18 02:08:31;;;;;;;57.13;34.05;;;;;;;;;;5071733;28;20029;-72
2021/09/18 02:10:58;;;;;;;58.70;35.13;;;;;;;;;;5070563;28;20035;-72
2021/09/18 02:13:25;;;;;;;55.42;33.35;;;;;;;;;;5072665;28;20021;-72
2021/09/18 02:15:51;;;;;;;54.40;33.83;;;;;;;;;;5073597;28;20028;-72
2021/09/18 02:18:17;;;;;;;51.55;34.17;;;;;;;;;;5070795;28;20146;-72
2021/09/18 02:20:44;;;;;;;49.38;30.60;;;;;;;;;;5072240;28;20102;-72
2021/09/18 02:23:11;;;;;;;54.67;31.77;;;;;;;;;;5075300;28;20028;-72
2021/09/18 02:25:38;;;;;;;50.97;32.85;;;;;;;;;;5071832;28;20024;-72
2021/09/18 02:28:04;;;;;;;46.92;29.45;;;;;;;;;;5070327;28;20043;-72
2021/09/18 02:30:32;;;;;;;55.65;31.75;;;;;;;;;;5071444;28;20024;-72
2021/09/18 02:32:58;;;;;;;45.90;30.17;;;;;;;;;;5071950;28;20490;-72
2021/09/18 02:35:26;;;;;;;50.92;29.52;;;;;;;;;;5071592;28;20036;-72
2021/09/18 02:37:53;;;;;;;50.80;29.42;;;;;;;;;;5071066;28;20044;-72
2021/09/18 02:40:20;;;;;;;49.03;31.17;;;;;;;;;;5070992;28;20178;-72
2021/09/18 02:42:47;;;;;;;53.00;31.25;;;;;;;;;;5071660;28;20096;-72
2021/09/18 02:45:14;;;;;;;58.63;31.90;;;;;;;;;;5071375;28;20028;-72
2021/09/18 02:47:41;;;;;;;50.22;29.05;;;;;;;;;;5066787;28;20074;-72
2021/09/18 02:50:08;;;;;;;47.50;29.95;;;;;;;;;;5071228;28;20032;-72
2021/09/18 02:52:34;;;;;;;53.08;30.63;;;;;;;;;;5071514;28;20024;-72
2021/09/18 02:55:01;;;;;;;51.97;29.00;;;;;;;;;;5070758;28;20036;-72
2021/09/18 02:57:27;;;;;;;48.58;30.60;;;;;;;;;;5068636;28;20032;-72
2021/09/18 02:59:53;;;;;;;51.92;31.88;;;;;;;;;;5071419;28;20036;-72
2021/09/18 03:02:19;;;;;;;60.85;35.25;;;;;;;;;;5072163;28;20095;-72
2021/09/18 03:04:45;;;;;;;53.30;31.80;;;;;;;;;;5071769;28;20040;-72
2021/09/18 03:07:11;;;;;;;51.45;32.05;;;;;;;;;;5069763;28;20040;-72
2021/09/18 03:09:37;;;;;;;54.28;32.33;;;;;;;;;;5070854;28;20032;-72
2021/09/18 03:12:03;;;;;;;48.75;29.58;;;;;;;;;;5071179;28;20021;-72
2021/09/18 03:14:29;;;;;;;57.40;33.70;;;;;;;;;;5070935;28;20649;-72
2021/09/18 03:16:55;;;;;;;52.50;32.70;;;;;;;;;;5072346;28;20133;-72
2021/09/18 03:19:21;;;;;;;53.90;33.78;;;;;;;;;;5069524;28;20181;-72
2021/09/18 03:21:47;;;;;;;56.90;33.13;;;;;;;;;;5071422;28;20036;-72
2021/09/18 03:24:13;;;;;;;51.35;33.17;;;;;;;;;;5067147;28;20036;-72
2021/09/18 03:26:43;;;;;;;47.70;30.10;;;;;;;;;;5084126;28;20170;-72
2021/09/18 03:29:10;;;;;;;51.22;31.35;;;;;;;;;;5069383;28;20027;-72
2021/09/18 03:31:36;;;;;;;55.38;32.05;;;;;;;;;;5069557;28;20032;-72
2021/09/18 03:34:03;;;;;;;55.38;32.20;;;;;;;;;;5068952;28;20052;-72
2021/09/18 03:36:29;;;;;;;55.45;33.42;;;;;;;;;;5071325;28;20036;-72
2021/09/18 03:38:55;;;;;;;51.95;31.35;;;;;;;;;;5070544;28;20052;-72
2021/09/18 03:41:21;;;;;;;50.22;32.33;;;;;;;;;;5069662;28;20029;-72
2021/09/18 03:43:47;;;;;;;55.20;32.50;;;;;;;;;;5071049;28;20042;-72
2021/09/18 03:46:13;;;;;;;52.28;31.13;;;;;;;;;;5086698;28;20032;-72
2021/09/18 03:48:40;;;;;;;50.72;31.92;;;;;;;;;;5069099;28;20557;-72
2021/09/18 03:51:06;;;;;;;55.20;31.77;;;;;;;;;;5064767;28;20495;-72
2021/09/18 03:53:33;;;;;;;54.25;32.15;;;;;;;;;;5070055;28;20098;-72
2021/09/18 03:55:59;;;;;;;48.92;32.10;;;;;;;;;;5070334;28;20027;-72
2021/09/18 03:58:25;;;;;;;55.38;32.78;;;;;;;;;;5067727;28;20036;-72
2021/09/18 04:00:51;;;;;;;55.33;32.60;;;;;;;;;;5069029;28;20028;-72
2021/09/18 04:03:17;;;;;;;57.50;36.25;;;;;;;;;;5069851;28;20028;-72
2021/09/18 04:05:43;;;;;;;58.50;34.95;;;;;;;;;;5070366;28;20032;-72
2021/09/18 04:08:10;;;;;;;55.90;34.47;;;;;;;;;;5069425;28;20115;-72
2021/09/18 04:10:36;;;;;;;55.45;36.22;;;;;;;;;;5070271;28;20016;-72
2021/09/18 04:13:03;;;;;;;57.88;36.20;;;;;;;;;;5068976;28;20556;-72
2021/09/18 04:15:29;;;;;;;59.65;35.90;;;;;;;;;;5069237;28;20036;-72
2021/09/18 04:17:55;;;;;;;55.17;34.03;;;;;;;;;;5068861;28;20036;-72
2021/09/18 04:20:21;;;;;;;56.55;33.13;;;;;;;;;;5070221;28;20804;-72
2021/09/18 04:22:47;;;;;;;54.53;34.30;;;;;;;;;;5069666;28;20075;-72
2021/09/18 04:25:13;;;;;;;59.72;34.17;;;;;;;;;;5069773;28;20487;-72
2021/09/18 04:27:39;;;;;;;51.05;32.55;;;;;;;;;;5068337;28;20028;-72
2021/09/18 04:30:06;;;;;;;53.75;32.80;;;;;;;;;;5068237;28;20025;-72
2021/09/18 04:32:32;;;;;;;55.78;34.53;;;;;;;;;;5070262;28;20412;-72
2021/09/18 04:34:58;;;;;;;56.90;35.53;;;;;;;;;;5070172;28;20397;-72
2021/09/18 04:37:25;;;;;;;57.65;34.72;;;;;;;;;;5068379;28;20095;-72
2021/09/18 04:39:51;;;;;;;59.42;34.53;;;;;;;;;;5069370;28;20020;-72
2021/09/18 04:42:18;;;;;;;60.58;34.92;;;;;;;;;;5068492;28;20028;-72
2021/09/18 04:44:44;;;;;;;58.45;35.33;;;;;;;;;;5070566;28;20494;-72
2021/09/18 04:47:10;;;;;;;58.75;36.72;;;;;;;;;;5070272;28;20074;-72
2021/09/18 04:49:36;;;;;;;60.70;35.28;;;;;;;;;;5067508;28;20036;-72
2021/09/18 04:52:03;;;;;;;62.05;35.83;;;;;;;;;;5072663;28;20118;-72
2021/09/18 04:54:29;;;;;;;59.38;36.03;;;;;;;;;;5069526;28;20482;-72
2021/09/18 04:56:55;;;;;;;63.33;35.38;;;;;;;;;;5058801;28;20111;-72
2021/09/18 04:59:21;;;;;;;61.60;37.25;;;;;;;;;;5066505;28;20059;-72
2021/09/18 05:01:47;;;;;;;69.10;40.15;;;;;;;;;;5069107;28;20029;-72
2021/09/18 05:04:13;;;;;;;68.45;39.08;;;;;;;;;;5070130;28;20043;-72
2021/09/18 05:06:39;;;;;;;71.88;38.88;;;;;;;;;;5083326;28;20036;-72
2021/09/18 05:09:05;;;;;;;76.35;40.95;;;;;;;;;;5067714;28;20047;-72
2021/09/18 05:11:31;;;;;;;73.97;41.10;;;;;;;;;;5069184;28;20030;-71
2021/09/18 05:13:58;;;;;;;75.57;43.13;;;;;;;;;;5072288;28;20445;-72
2021/09/18 05:16:24;;;;;;;81.45;46.45;;;;;;;;;;5073763;28;20008;-72
2021/09/18 05:18:50;;;;;;;80.28;44.05;;;;;;;;;;5073303;28;20029;-72
2021/09/18 05:21:16;;;;;;;78.43;45.92;;;;;;;;;;5071701;28;20032;-72
2021/09/18 05:23:42;;;;;;;78.95;45.47;;;;;;;;;;5072888;28;20059;-72
2021/09/18 05:26:09;;;;;;;79.97;44.58;;;;;;;;;;5086612;28;20071;-72
2021/09/18 05:28:35;;;;;;;83.63;46.97;;;;;;;;;;5072252;28;20391;-72
2021/09/18 05:31:01;;;;;;;78.88;45.53;;;;;;;;;;5073966;28;20437;-72
2021/09/18 05:33:27;;;;;;;82.70;45.63;;;;;;;;;;5073277;28;20044;-72
2021/09/18 05:35:53;;;;;;;79.90;47.97;;;;;;;;;;5071300;28;20029;-72
2021/09/18 05:38:19;;;;;;;77.22;45.25;;;;;;;;;;5080191;28;20049;-72
2021/09/18 05:40:45;;;;;;;81.65;45.50;;;;;;;;;;5073475;28;20031;-72
2021/09/18 05:43:11;;;;;;;80.68;46.22;;;;;;;;;;5073689;28;20023;-72
2021/09/18 05:45:37;;;;;;;77.78;46.58;;;;;;;;;;5070823;28;20023;-72
2021/09/18 05:48:04;;;;;;;75.10;45.20;;;;;;;;;;5071997;28;20017;-72
2021/09/18 05:50:30;;;;;;;80.05;45.50;;;;;;;;;;5073579;28;20025;-72
2021/09/18 05:52:56;;;;;;;85.95;47.50;;;;;;;;;;5071328;28;20035;-72
2021/09/18 05:55:22;;;;;;;80.28;45.47;;;;;;;;;;5073490;28;20055;-72
2021/09/18 05:57:48;;;;;;;82.63;46.25;;;;;;;;;;5070429;28;20028;-72
2021/09/18 06:00:14;;;;;;;88.10;46.38;;;;;;;;;;5072441;28;20024;-72
2021/09/18 06:02:41;;;;;;;80.65;48.10;;;;;;;;;;5072061;28;20490;-72
2021/09/18 06:05:08;;;;;;;81.78;47.47;;;;;;;;;;5073578;28;20032;-72
2021/09/18 06:07:35;;;;;;;82.22;48.10;;;;;;;;;;5075446;28;20037;-71
2021/09/18 06:10:01;;;;;;;78.60;46.90;;;;;;;;;;5073719;28;20070;-72
2021/09/18 06:12:27;;;;;;;78.30;46.50;;;;;;;;;;5070332;28;20016;-72
2021/09/18 06:14:53;;;;;;;87.63;48.90;;;;;;;;;;5072899;28;20039;-72
2021/09/18 06:17:19;;;;;;;82.68;48.72;;;;;;;;;;5071595;28;20375;-72
2021/09/18 06:19:45;;;;;;;87.57;49.38;;;;;;;;;;5073589;28;20025;-72
2021/09/18 06:22:12;;;;;;;90.88;49.83;;;;;;;;;;5070384;28;20505;-72
2021/09/18 06:24:39;;;;;;;100.00;53.83;;;;;;;;;;5071115;28;20466;-73
2021/09/18 06:27:05;;;;;;;94.20;52.88;;;;;;;;;;5067382;28;20040;-72
2021/09/18 06:29:31;;;;;;;96.55;53.72;;;;;;;;;;5071623;28;20024;-72
2021/09/18 06:31:57;;;;;;;91.30;52.88;;;;;;;;;;5060613;28;20017;-72
2021/09/18 06:34:23;;;;;;;94.75;52.90;;;;;;;;;;5071637;28;20047;-72
2021/09/18 06:36:49;;;;;;;89.53;49.90;;;;;;;;;;5072846;28;20036;-72
2021/09/18 06:39:15;;;;;;;96.63;54.45;;;;;;;;;;5069243;28;20036;-72
2021/09/18 06:41:42;;;;;;;93.55;52.67;;;;;;;;;;5070602;28;20036;-72
2021/09/18 06:44:08;;;;;;;94.28;53.70;;;;;;;;;;5071457;28;20024;-72
2021/09/18 06:46:34;;;;;;;98.53;54.83;;;;;;;;;;5072032;28;20498;-72
2021/09/18 06:49:00;;;;;;;102.38;55.92;;;;;;;;;;5070386;28;20501;-72
2021/09/18 06:51:26;;;;;;;103.07;56.05;;;;;;;;;;5073191;28;20070;-72
2021/09/18 06:53:52;;;;;;;96.50;55.92;;;;;;;;;;5070960;28;20051;-72
2021/09/18 06:56:18;;;;;;;97.10;55.65;;;;;;;;;;5069711;28;20036;-72
2021/09/18 06:58:44;;;;;;;93.65;55.13;;;;;;;;;;5068694;28;20029;-72
2021/09/18 07:01:10;;;;;;;106.45;57.92;;;;;;;;;;5070032;28;20024;-72
2021/09/18 07:03:36;;;;;;;94.22;55.47;;;;;;;;;;5072049;28;20028;-72
2021/09/18 07:06:02;;;;;;;100.45;54.83;;;;;;;;;;5071563;28;20048;-72
2021/09/18 07:08:28;;;;;;;109.40;61.30;;;;;;;;;;5068584;28;20414;-72
2021/09/18 07:10:54;;;;;;;112.25;59.85;;;;;;;;;;5074724;28;20078;-72
2021/09/18 07:13:21;;;;;;;114.97;64.72;;;;;;;;;;5071556;28;20494;-72
2021/09/18 07:15:47;;;;;;;118.47;64.13;;;;;;;;;;5069953;28;20039;-72
2021/09/18 07:18:13;;;;;;;121.10;68.10;;;;;;;;;;5068996;28;20036;-72
2021/09/18 07:20:39;;;;;;;125.22;67.30;;;;;;;;;;5072100;28;20029;-72
2021/09/18 07:23:05;;;;;;;123.30;64.55;;;;;;;;;;5065711;28;20017;-72
2021/09/18 07:25:31;;;;;;;123.55;66.47;;;;;;;;;;5069437;28;20524;-73
2021/09/18 07:27:57;;;;;;;118.32;66.47;;;;;;;;;;5067014;28;20024;-73
2021/09/18 07:30:23;;;;;;;115.38;63.03;;;;;;;;;;5071835;28;20063;-72
2021/09/18 07:32:49;;;;;;;117.20;65.93;;;;;;;;;;5071533;28;20020;-72
2021/09/18 07:35:15;;;;;;;112.75;60.85;;;;;;;;;;5070206;28;20031;-72
2021/09/18 07:37:41;;;;;;;111.95;61.78;;;;;;;;;;5068086;28;20056;-72
2021/09/18 07:40:08;;;;;;;105.63;62.03;;;;;;;;;;5069004;28;20032;-73
2021/09/18 07:42:35;;;;;;;104.32;58.63;;;;;;;;;;5069361;28;20494;-73
2021/09/18 07:45:01;;;;;;;96.70;58.38;;;;;;;;;;5070723;28;20029;-73
2021/09/18 07:47:27;;;;;;;100.13;53.95;;;;;;;;;;5067705;28;20474;-72
2021/09/18 07:49:53;;;;;;;96.93;54.17;;;;;;;;;;5067943;28;20048;-72
2021/09/18 07:52:19;;;;;;;91.93;53.58;;;;;;;;;;5077311;28;20024;-73
2021/09/18 07:54:45;;;;;;;90.68;52.13;;;;;;;;;;5056049;28;20060;-73
2021/09/18 07:57:12;;;;;;;83.40;50.17;;;;;;;;;;5065526;28;20035;-72
2021/09/18 07:59:38;;;;;;;81.07;48.65;;;;;;;;;;5070437;28;20042;-72
2021/09/18 08:02:04;;;;;;;84.00;47.30;;;;;;;;;;5069959;28;20029;-73
2021/09/18 08:04:30;;;;;;;82.75;46.83;;;;;;;;;;5064928;28;20024;-72
2021/09/18 08:06:56;;;;;;;72.00;45.30;;;;;;;;;;5065091;28;20025;-72
2021/09/18 08:09:22;;;;;;;73.75;45.70;;;;;;;;;;5057773;28;20033;-72
2021/09/18 08:11:49;;;;;;;70.47;46.50;;;;;;;;;;5061667;28;20074;-72
2021/09/18 08:14:15;;;;;;;72.22;46.97;;;;;;;;;;5066652;28;20028;-73
2021/09/18 08:16:41;;;;;;;75.15;47.33;;;;;;;;;;5069052;28;20029;-72
2021/09/18 08:19:07;;;;;;;77.50;48.13;;;;;;;;;;5067216;28;20074;-73
2021/09/18 08:21:33;;;;;;;70.80;47.28;;;;;;;;;;5063051;28;20379;-73
2021/09/18 08:23:59;;;;;;;75.72;45.70;;;;;;;;;;5066244;28;20039;-74
2021/09/18 08:26:31;;;;;;;73.82;46.13;;;;;;;;;;5063176;28;20028;-74
2021/09/18 08:28:58;;;;;;;72.07;45.70;;;;;;;;;;5064629;28;20028;-73
2021/09/18 08:31:24;;;;;;;69.38;44.63;;;;;;;;;;5066561;28;20020;-73
2021/09/18 08:33:50;;;;;;;66.32;43.10;;;;;;;;;;5065450;28;20020;-74
2021/09/18 08:36:17;;;;;;;67.65;43.00;;;;;;;;;;5064369;28;20036;-73
2021/09/18 08:38:43;;;;;;;66.93;44.50;;;;;;;;;;5063887;28;20043;-73
2021/09/18 08:41:09;;;;;;;71.93;47.75;;;;;;;;;;5068061;28;20029;-73
2021/09/18 08:43:35;;;;;;;75.93;49.60;;;;;;;;;;5066542;28;20074;-73
2021/09/18 08:46:01;;;;;;;74.88;48.60;;;;;;;;;;5084526;28;20024;-74
2021/09/18 08:48:28;;;;;;;70.63;48.75;;;;;;;;;;5067598;28;20020;-73
2021/09/18 08:50:54;;;;;;;70.72;46.47;;;;;;;;;;5068772;28;20025;-73
2021/09/18 08:53:21;;;;;;;68.20;45.95;;;;;;;;;;5063830;28;20037;-73
2021/09/18 08:55:55;;;;;;;71.35;43.03;;;;;;;;;;5065088;28;20047;-73
2021/09/18 08:58:21;;;;;;;66.43;44.42;;;;;;;;;;5065999;28;20024;-73
2021/09/18 09:00:49;;;;;;;69.20;44.75;;;;;;;;;;5068950;28;20031;-73
2021/09/18 09:03:22;;;;;;;65.82;45.42;;;;;;;;;;5081144;28;20666;-73
2021/09/18 09:05:48;;;;;;;67.20;47.65;;;;;;;;;;5070050;28;20035;-73
2021/09/18 09:08:15;;;;;;;68.55;44.42;;;;;;;;;;5065981;28;20092;-74
2021/09/18 09:10:43;;;;;;;60.92;42.08;;;;;;;;;;5067414;28;20486;-73
2021/09/18 09:13:10;;;;;;;58.95;40.60;;;;;;;;;;5070041;28;20555;-73
2021/09/18 09:15:37;;;;;;;55.60;38.53;;;;;;;;;;5066842;28;20029;-73
2021/09/18 09:18:21;;;;;;;60.45;40.03;;;;;;;;;;5067221;28;20025;-73
2021/09/18 09:20:48;;;;;;;58.60;39.50;;;;;;;;;;5068290;28;20115;-73
2021/09/18 09:23:16;;;;;;;49.72;33.17;;;;;;;;;;5061153;28;20020;-75
2021/09/18 09:25:42;;;;;;;48.13;33.05;;;;;;;;;;5067118;28;20031;-73
2021/09/18 09:28:23;;;;;;;49.40;32.20;;;;;;;;;;5065271;28;20554;-73
2021/09/18 09:30:50;;;;;;;53.15;34.83;;;;;;;;;;5071503;28;20093;-73
2021/09/18 09:33:16;;;;;;;53.78;36.55;;;;;;;;;;5072277;28;20060;-74
2021/09/18 09:35:42;;;;;;;53.17;37.85;;;;;;;;;;5069969;28;20251;-73
2021/09/18 09:38:09;;;;;;;51.88;37.63;;;;;;;;;;5081756;28;20036;-73
2021/09/18 09:40:37;;;;;;;57.47;39.35;;;;;;;;;;5069851;28;20032;-73
2021/09/18 09:43:04;;;;;;;50.20;35.22;;;;;;;;;;5060922;28;20029;-73
2021/09/18 09:45:30;;;;;;;48.65;32.58;;;;;;;;;;5051108;28;20029;-73
2021/09/18 09:48:20;;;;;;;48.25;31.63;;;;;;;;;;5051116;28;20036;-73
2021/09/18 09:50:57;;;;;;;49.92;33.58;;;;;;;;;;5061825;28;20061;-73
2021/09/18 09:53:25;;;;;;;54.55;35.17;;;;;;;;;;5069365;28;20198;-73
2021/09/18 09:55:51;;;;;;;53.28;35.45;;;;;;;;;;5066799;28;20081;-73
2021/09/18 09:58:17;;;;;;;53.85;38.55;;;;;;;;;;5048323;28;20028;-73
2021/09/18 10:00:47;;;;;;;51.28;36.13;;;;;;;;;;5054086;28;20034;-73
2021/09/18 10:03:13;;;;;;;51.92;35.63;;;;;;;;;;5067512;28;20029;-73
2021/09/18 10:05:40;;;;;;;48.42;35.08;;;;;;;;;;5076557;28;20012;-73
2021/09/18 10:08:06;;;;;;;43.92;31.45;;;;;;;;;;5073177;28;20052;-73
2021/09/18 10:10:33;;;;;;;54.13;37.88;;;;;;;;;;5073481;28;20033;-73
2021/09/18 10:12:59;;;;;;;52.40;34.67;;;;;;;;;;5072393;28;20021;-73
2021/09/18 10:15:27;;;;;;;47.25;30.75;;;;;;;;;;5073258;28;20060;-72
2021/09/18 10:17:55;;;;;;;42.22;29.58;;;;;;;;;;5069932;28;20036;-73
2021/09/18 10:25:47;;;;;;;46.90;31.52;;;;;;;;;;5058101;28;20576;-73
2021/09/18 10:28:23;;;;;;;41.05;27.90;;;;;;;;;;5065552;28;20036;-72
2021/09/18 10:30:55;;;;;;;38.95;27.70;;;;;;;;;;5054168;28;20021;-73
2021/09/18 10:33:27;;;;;;;36.05;25.20;;;;;;;;;;5072284;28;20102;-72
2021/09/18 10:36:05;;;;;;;35.80;24.27;;;;;;;;;;5072315;28;20410;-72
2021/09/18 10:38:33;;;;;;;37.15;26.02;;;;;;;;;;5064837;28;20078;-73
2021/09/18 10:41:01;;;;;;;36.13;25.63;;;;;;;;;;5063566;28;20472;-71
2021/09/18 10:43:38;;;;;;;33.25;21.77;;;;;;;;;;5053080;28;20345;-72
2021/09/18 10:46:05;;;;;;;29.17;20.42;;;;;;;;;;5064492;28;20441;-71
2021/09/18 10:48:39;;;;;;;35.47;22.00;;;;;;;;;;5074087;28;20048;-71
2021/09/18 10:51:06;;;;;;;33.55;19.98;;;;;;;;;;5076465;28;20082;-72
2021/09/18 10:53:52;;;;;;;30.58;20.52;;;;;;;;;;5072219;28;20093;-72
2021/09/18 10:56:18;;;;;;;28.63;19.60;;;;;;;;;;5079631;28;20485;-72
2021/09/18 10:59:03;;;;;;;22.45;15.82;;;;;;;;;;5090107;28;20528;-72
2021/09/18 11:01:29;;;;;;;23.13;15.73;;;;;;;;;;5077780;28;20035;-73
2021/09/18 11:03:58;;;;;;;27.23;16.90;;;;;;;;;;5088230;28;20029;-72
2021/09/18 11:06:35;;;;;;;26.27;18.98;;;;;;;;;;5071340;28;20073;-73
2021/09/18 11:09:01;;;;;;;28.20;20.55;;;;;;;;;;5069385;28;20078;-71
2021/09/18 11:11:27;;;;;;;31.80;18.95;;;;;;;;;;5072558;28;20016;-72
2021/09/18 11:13:56;;;;;;;21.77;16.25;;;;;;;;;;5074253;28;20556;-72
2021/09/18 11:16:26;;;;;;;25.42;16.25;;;;;;;;;;5075311;28;20498;-72
2021/09/18 11:18:54;;;;;;;21.38;15.57;;;;;;;;;;5069298;28;20089;-73
2021/09/18 11:21:20;;;;;;;19.35;13.82;;;;;;;;;;5067024;28;20041;-72
2021/09/18 11:23:48;;;;;;;22.75;14.90;;;;;;;;;;5070691;28;20020;-71
2021/09/18 11:26:35;;;;;;;20.73;15.35;;;;;;;;;;5069649;28;20027;-71
2021/09/18 11:29:11;;;;;;;24.88;16.33;;;;;;;;;;5049071;28;20215;-71
2021/09/18 11:31:38;;;;;;;22.83;16.35;;;;;;;;;;5064138;28;20103;-70
2021/09/18 11:34:05;;;;;;;24.73;16.58;;;;;;;;;;5062719;28;20035;-71
2021/09/18 11:36:31;;;;;;;18.00;13.35;;;;;;;;;;5066072;28;20024;-71
2021/09/18 11:38:58;;;;;;;18.00;11.68;;;;;;;;;;5057377;28;20286;-72
2021/09/18 11:41:25;;;;;;;17.40;12.75;;;;;;;;;;5066608;28;20115;-71
2021/09/18 11:43:51;;;;;;;19.23;13.45;;;;;;;;;;5070327;28;20098;-71
2021/09/18 11:46:24;;;;;;;20.27;14.27;;;;;;;;;;5062771;28;20021;-72
2021/09/18 11:49:00;;;;;;;20.52;13.45;;;;;;;;;;5066091;28;20536;-71
2021/09/18 11:51:27;;;;;;;21.58;13.13;;;;;;;;;;5068541;28;20036;-71
2021/09/18 11:53:59;;;;;;;20.95;12.30;;;;;;;;;;5071330;28;20036;-71
2021/09/18 11:56:26;;;;;;;16.80;12.13;;;;;;;;;;5063262;28;20111;-71
2021/09/18 11:58:52;;;;;;;19.58;13.73;;;;;;;;;;5069737;28;20028;-71
2021/09/18 12:01:18;;;;;;;22.98;13.70;;;;;;;;;;5074826;28;20044;-70
2021/09/18 12:03:44;;;;;;;25.63;19.40;;;;;;;;;;5069109;28;20045;-71
2021/09/18 12:06:10;;;;;;;18.55;14.18;;;;;;;;;;5075307;28;20058;-71
2021/09/18 12:08:37;;;;;;;21.40;13.75;;;;;;;;;;5067421;28;20071;-71
2021/09/18 12:11:09;;;;;;;21.27;12.63;;;;;;;;;;5069257;28;20497;-71
2021/09/18 12:13:39;;;;;;;19.38;12.45;;;;;;;;;;5071573;28;20032;-71
2021/09/18 12:16:06;;;;;;;20.85;13.57;;;;;;;;;;5071192;28;20025;-71
2021/09/18 12:18:32;;;;;;;20.35;13.95;;;;;;;;;;5073800;28;20029;-71
2021/09/18 12:21:16;;;;;;;23.42;15.05;;;;;;;;;;5069532;28;20020;-71
2021/09/18 12:23:43;;;;;;;22.48;14.93;;;;;;;;;;5068951;28;20418;-71
2021/09/18 12:26:10;;;;;;;25.08;16.08;;;;;;;;;;5067606;28;20025;-71
2021/09/18 12:28:36;;;;;;;24.33;15.60;;;;;;;;;;5052360;28;20036;-71
2021/09/18 12:31:19;;;;;;;21.13;14.98;;;;;;;;;;5070233;28;20017;-71
2021/09/18 12:33:46;;;;;;;25.65;16.65;;;;;;;;;;5069059;28;20033;-71
2021/09/18 12:36:14;;;;;;;19.60;14.25;;;;;;;;;;5070456;28;20066;-71
2021/09/18 12:38:42;;;;;;;25.80;16.00;;;;;;;;;;5066175;28;20093;-71
2021/09/18 12:41:09;;;;;;;22.40;14.15;;;;;;;;;;5069287;28;20056;-71
2021/09/18 12:43:36;;;;;;;21.92;16.00;;;;;;;;;;5067455;28;20067;-71
2021/09/18 12:46:06;;;;;;;20.40;14.40;;;;;;;;;;5068416;28;20410;-71
2021/09/18 12:48:32;;;;;;;22.43;14.97;;;;;;;;;;5065820;28;20495;-71
2021/09/18 12:50:59;;;;;;;20.27;14.13;;;;;;;;;;5080966;28;20021;-71
2021/09/18 12:53:26;;;;;;;19.80;12.43;;;;;;;;;;5082692;28;20515;-71
2021/09/18 12:56:05;;;;;;;18.27;12.48;;;;;;;;;;5070979;28;20086;-71
2021/09/18 12:58:31;;;;;;;20.83;14.13;;;;;;;;;;5074712;28;20021;-71
2021/09/18 13:00:58;;;;;;;19.83;13.52;;;;;;;;;;5075035;28;20116;-71
2021/09/18 13:03:24;;;;;;;21.73;15.68;;;;;;;;;;5076438;28;20023;-71
2021/09/18 13:06:05;;;;;;;24.23;16.88;;;;;;;;;;5073294;28;20021;-71
2021/09/18 13:08:44;;;;;;;24.88;17.10;;;;;;;;;;5074798;28;20021;-71
2021/09/18 13:11:14;;;;;;;24.13;17.30;;;;;;;;;;5070448;28;20031;-71
2021/09/18 13:13:40;;;;;;;23.48;14.55;;;;;;;;;;5063393;28;20025;-71
2021/09/18 13:16:06;;;;;;;23.17;16.92;;;;;;;;;;5063054;28;20578;-71
2021/09/18 13:18:32;;;;;;;20.35;15.20;;;;;;;;;;5063692;28;20032;-71
2021/09/18 13:20:58;;;;;;;18.13;11.63;;;;;;;;;;5063612;28;20032;-71
2021/09/18 13:23:24;;;;;;;17.92;12.45;;;;;;;;;;5051129;28;20067;-71
2021/09/18 13:25:50;;;;;;;19.73;13.27;;;;;;;;;;5063140;28;20051;-71
2021/09/18 13:28:16;;;;;;;172.98;55.60;;;;;;;;;;5063554;28;20025;-71
2021/09/18 13:30:42;;;;;;;25.95;13.10;;;;;;;;;;5056796;28;20498;-71
2021/09/18 13:33:08;;;;;;;19.08;12.75;;;;;;;;;;5059546;28;20509;-71
2021/09/18 13:35:35;;;;;;;18.60;12.75;;;;;;;;;;5062521;28;20123;-71
2021/09/18 13:38:01;;;;;;;17.73;11.63;;;;;;;;;;5058917;28;20049;-71
2021/09/18 13:40:27;;;;;;;17.50;12.60;;;;;;;;;;5073334;28;20036;-71
2021/09/18 13:42:53;;;;;;;17.73;12.40;;;;;;;;;;5060446;28;20103;-71
2021/09/18 13:45:19;;;;;;;18.30;13.07;;;;;;;;;;5055221;28;20511;-71
2021/09/18 13:47:45;;;;;;;19.80;13.98;;;;;;;;;;5069304;28;20047;-71
2021/09/18 13:50:11;;;;;;;22.70;14.18;;;;;;;;;;5068487;28;20517;-71
2021/09/18 13:52:37;;;;;;;21.08;14.57;;;;;;;;;;5077203;28;20478;-70
2021/09/18 13:55:03;;;;;;;21.15;16.95;;;;;;;;;;5077110;28;20039;-71
2021/09/18 13:57:30;;;;;;;22.48;15.48;;;;;;;;;;5060404;28;20028;-70
2021/09/18 13:59:56;;;;;;;19.63;13.70;;;;;;;;;;5082826;28;20035;-71
2021/09/18 14:02:22;;;;;;;20.00;13.75;;;;;;;;;;5076844;28;20074;-71
2021/09/18 14:04:48;;;;;;;23.02;16.25;;;;;;;;;;5077700;28;20085;-71
2021/09/18 14:07:14;;;;;;;21.90;12.88;;;;;;;;;;5074304;28;20057;-71
2021/09/18 14:09:40;;;;;;;20.95;15.20;;;;;;;;;;5079091;28;20017;-71
2021/09/18 14:12:06;;;;;;;20.92;14.55;;;;;;;;;;5072707;28;20058;-71
2021/09/18 14:14:32;;;;;;;21.92;15.93;;;;;;;;;;5075535;28;20024;-71
2021/09/18 14:16:59;;;;;;;24.05;15.75;;;;;;;;;;5083048;28;20032;-71
2021/09/18 14:19:25;;;;;;;18.33;13.55;;;;;;;;;;5076490;28;20103;-71
2021/09/18 14:21:51;;;;;;;22.38;15.18;;;;;;;;;;5068505;28;20043;-71